Time;durP1;ratioP1;P1;durP2;ratioP2;P2;SDS_P1;SDS_P2;PMS_P1;PMS_P2;Temp;Humidity;BMP_temperature;BMP_pressure;BME280_temperature;BME280_humidity;BME280_pressure;Samples;Min_cycle;Max_cycle;Signal;HPM_P1;HPM_P2
2020/12/16 00:00:48;;;;;;;48.87;15.43;;;;;;;1.41;90.40;101861.03;1737247;82;21181;-90
2020/12/16 00:03:15;;;;;;;47.85;15.48;;;;;;;1.64;90.41;101883.75;1737299;82;21056;-89
2020/12/16 00:05:41;;;;;;;47.05;15.80;;;;;;;1.70;89.68;101885.22;1737318;82;21610;-90
2020/12/16 00:08:07;;;;;;;44.73;14.75;;;;;;;1.49;90.04;101883.10;1737184;82;21022;-89
2020/12/16 00:10:33;;;;;;;40.52;14.93;;;;;;;1.51;90.51;101892.25;1712534;82;21615;-90
2020/12/16 00:12:59;;;;;;;45.80;15.35;;;;;;;1.55;90.45;101897.55;1737342;82;22029;-89
2020/12/16 00:15:26;;;;;;;47.75;14.98;;;;;;;1.67;90.19;101898.02;1737434;81;21144;-90
2020/12/16 00:17:52;;;;;;;43.40;15.15;;;;;;;1.42;90.48;101897.24;1737369;82;21117;-89
2020/12/16 00:20:18;;;;;;;45.08;15.23;;;;;;;1.64;89.94;101902.35;1737261;82;21136;-90
2020/12/16 00:22:44;;;;;;;47.73;15.25;;;;;;;1.62;90.10;101897.22;1737139;82;21620;-90
2020/12/16 00:25:13;;;;;;;49.08;15.95;;;;;;;1.68;89.79;101893.89;1737313;82;21194;-90
2020/12/16 00:27:39;;;;;;;52.48;17.15;;;;;;;1.56;90.38;101897.89;1737208;82;21156;-90
2020/12/16 00:30:07;;;;;;;50.45;16.40;;;;;;;1.51;90.73;101897.05;1712687;82;21551;-89
2020/12/16 00:32:37;;;;;;;50.52;14.68;;;;;;;1.53;90.28;101898.20;1737206;82;21121;-90
2020/12/16 00:35:06;;;;;;;43.73;14.00;;;;;;;1.39;90.49;101896.25;1749065;80;21109;-89
2020/12/16 00:37:38;;;;;;;43.83;14.38;;;;;;;1.47;90.37;101893.56;1770924;81;21222;-89
2020/12/16 00:40:07;;;;;;;45.88;15.63;;;;;;;1.42;90.17;101895.41;1683040;85;21191;-90
2020/12/16 00:42:34;;;;;;;48.70;15.03;;;;;;;1.60;89.86;101897.87;1691341;84;21297;-90
2020/12/16 00:45:00;;;;;;;43.85;14.35;;;;;;;1.73;89.25;101900.00;1707182;84;21220;-89
2020/12/16 00:47:26;;;;;;;46.88;16.15;;;;;;;1.58;89.47;101901.19;1706976;84;21254;-89
2020/12/16 00:49:52;;;;;;;46.20;15.10;;;;;;;1.58;89.83;101900.69;1683060;84;21092;-90
2020/12/16 00:52:19;;;;;;;46.00;15.63;;;;;;;1.47;89.69;101907.70;1706977;84;20966;-89
2020/12/16 00:54:45;;;;;;;42.25;14.70;;;;;;;1.63;89.70;101908.17;1707081;84;21573;-90
2020/12/16 00:57:11;;;;;;;43.92;15.68;;;;;;;1.56;89.62;101904.53;1707109;84;21153;-89
2020/12/16 00:59:37;;;;;;;44.80;14.87;;;;;;;1.55;89.55;101896.22;1707114;84;21351;-90
2020/12/16 01:02:05;;;;;;;40.25;13.50;;;;;;;1.38;89.39;101898.05;1707179;84;21997;-89
2020/12/16 01:04:31;;;;;;;40.75;13.15;;;;;;;1.38;89.39;101898.05;1706912;84;21164;-90
2020/12/16 01:06:57;;;;;;;42.50;13.88;;;;;;;1.41;89.99;101903.02;1707063;84;21696;-89
2020/12/16 01:09:23;;;;;;;47.48;14.00;;;;;;;1.48;89.89;101904.54;1707053;84;20991;-90
2020/12/16 01:11:49;;;;;;;46.35;14.07;;;;;;;1.51;89.67;101901.55;1707195;84;21013;-90
2020/12/16 01:14:15;;;;;;;45.35;14.50;;;;;;;1.45;89.90;101907.53;1707158;84;21196;-89
2020/12/16 01:16:40;;;;;;;36.90;13.05;;;;;;;1.25;90.36;101900.39;1707037;84;21656;-89
2020/12/16 01:19:07;;;;;;;46.18;14.87;;;;;;;1.38;90.27;101899.88;1706921;84;21148;-90
2020/12/16 01:21:37;;;;;;;47.40;14.65;;;;;;;1.32;90.56;101900.05;1706971;84;21235;-90
2020/12/16 01:24:08;;;;;;;45.48;14.43;;;;;;;1.40;90.10;101899.23;1707118;84;21179;-89
2020/12/16 01:29:14;;;;;;;47.30;14.18;;;;;;;1.23;90.71;101895.23;1563298;90;21296;-90
2020/12/16 01:31:47;;;;;;;42.10;12.78;;;;;;;1.41;90.22;101894.23;1565159;90;21272;-90
2020/12/16 01:34:19;;;;;;;44.88;15.00;;;;;;;1.38;90.07;101891.41;1563239;90;21949;-89
2020/12/16 01:36:43;;;;;;;43.68;13.62;;;;;;;1.47;89.58;101893.09;1582992;89;21239;-90
2020/12/16 01:39:11;;;;;;;45.52;15.00;;;;;;;1.47;89.50;101897.08;1603352;88;21217;-90
2020/12/16 01:41:43;;;;;;;37.15;13.55;;;;;;;1.50;89.54;101896.73;1603510;88;21194;-90
2020/12/16 01:44:16;;;;;;;44.90;15.00;;;;;;;1.34;89.51;101896.23;1581482;89;21166;-90
2020/12/16 01:46:51;;;;;;;47.85;15.20;;;;;;;1.28;89.78;101886.28;1581538;89;21202;-90
2020/12/16 01:49:18;;;;;;;42.30;14.10;;;;;;;1.45;89.41;101896.40;1531693;92;21147;-90
2020/12/16 01:51:45;;;;;;;41.28;13.60;;;;;;;1.22;90.13;101895.41;1531676;92;21190;-89
2020/12/16 01:54:14;;;;;;;42.70;13.95;;;;;;;1.41;89.60;101895.56;1531640;92;21274;-89
2020/12/16 01:56:41;;;;;;;35.13;13.68;;;;;;;1.29;89.79;101892.41;1531592;92;21278;-89
2020/12/16 01:59:13;;;;;;;41.85;14.28;;;;;;;1.08;90.70;101899.05;1531759;93;21778;-89
2020/12/16 02:01:41;;;;;;;45.95;14.70;;;;;;;1.08;90.94;101901.70;1512557;93;21254;-88
2020/12/16 02:04:14;;;;;;;36.93;12.98;;;;;;;0.89;91.92;101898.88;1531858;92;21382;-90
2020/12/16 02:06:42;;;;;;;41.15;13.93;;;;;;;1.15;91.35;101900.56;1531758;92;21194;-89
2020/12/16 02:09:10;;;;;;;37.60;13.00;;;;;;;1.20;91.15;101904.03;1531552;92;21206;-89
2020/12/16 02:11:39;;;;;;;40.63;13.58;;;;;;;1.25;90.85;101907.85;1531778;92;21200;-89
2020/12/16 02:14:07;;;;;;;40.50;13.72;;;;;;;1.29;90.63;101903.86;1531789;92;21748;-89
2020/12/16 02:16:37;;;;;;;39.88;13.60;;;;;;;1.27;90.38;101903.22;1531655;92;22067;-89
2020/12/16 02:19:06;;;;;;;39.27;13.70;;;;;;;1.24;90.63;101903.55;1531663;92;21093;-90
2020/12/16 02:21:33;;;;;;;40.52;14.07;;;;;;;1.28;90.75;101903.53;1531663;93;21274;-90
2020/12/16 02:24:07;;;;;;;42.62;13.90;;;;;;;1.38;90.38;101910.00;1531660;92;21215;-89
2020/12/16 02:26:39;;;;;;;43.83;14.38;;;;;;;1.32;90.38;101918.63;1552266;90;21380;-89
2020/12/16 02:29:07;;;;;;;41.85;13.00;;;;;;;1.22;90.94;101917.98;1583065;90;22010;-89
2020/12/16 02:31:37;;;;;;;36.45;12.28;;;;;;;1.33;90.36;101926.45;1583043;90;21173;-89
2020/12/16 02:34:05;;;;;;;39.92;12.95;;;;;;;1.36;90.51;101927.44;1582990;90;21775;-90
2020/12/16 02:36:32;;;;;;;41.58;13.62;;;;;;;1.30;90.38;101936.08;1575072;90;21191;-90
2020/12/16 02:38:59;;;;;;;38.20;12.55;;;;;;;1.44;90.16;101937.25;1572671;91;21151;-90
2020/12/16 02:41:27;;;;;;;37.05;13.00;;;;;;;1.18;90.02;101941.38;1595736;89;21651;-89
2020/12/16 02:43:53;;;;;;;36.65;12.00;;;;;;;1.08;91.06;101941.52;1604840;89;21279;-89
2020/12/16 02:46:20;;;;;;;36.05;13.00;;;;;;;1.28;90.45;101938.05;1652202;84;21651;-90
2020/12/16 02:48:46;;;;;;;34.63;11.68;;;;;;;1.40;89.99;101945.20;1682381;85;21266;-89
2020/12/16 02:51:11;;;;;;;36.10;12.60;;;;;;;1.28;89.82;101946.02;1682468;85;20960;-89
2020/12/16 02:53:37;;;;;;;36.20;13.40;;;;;;;1.24;90.46;101950.02;1682405;85;21202;-89
2020/12/16 02:56:03;;;;;;;29.35;10.63;;;;;;;1.05;90.01;101955.62;1682305;85;21131;-89
2020/12/16 02:58:29;;;;;;;28.42;10.15;;;;;;;1.08;90.09;101946.83;1682390;85;21163;-89
2020/12/16 03:00:55;;;;;;;32.60;10.63;;;;;;;1.24;90.02;101953.17;1682032;85;21033;-89
2020/12/16 03:03:21;;;;;;;29.82;11.18;;;;;;;1.10;89.59;101954.64;1682269;85;21030;-89
2020/12/16 03:05:47;;;;;;;27.45;9.93;;;;;;;1.26;89.90;101959.13;1682254;85;21184;-89
2020/12/16 03:08:13;;;;;;;24.82;8.43;;;;;;;0.98;90.39;101961.26;1682530;85;21592;-89
2020/12/16 03:10:39;;;;;;;25.62;8.88;;;;;;;0.95;89.41;101965.06;1682378;85;21020;-89
2020/12/16 03:13:06;;;;;;;22.02;7.95;;;;;;;1.12;89.59;101969.41;1682427;85;21162;-89
2020/12/16 03:15:33;;;;;;;22.30;8.50;;;;;;;0.93;89.51;101976.33;1682276;85;22535;-89
2020/12/16 03:17:59;;;;;;;23.60;9.28;;;;;;;1.05;88.84;101980.84;1682456;85;21346;-88
2020/12/16 03:20:24;;;;;;;21.00;8.25;;;;;;;0.89;89.39;101978.48;1682270;85;20945;-89
2020/12/16 03:22:50;;;;;;;26.48;8.75;;;;;;;0.92;89.49;101981.31;1706093;80;21005;-89
2020/12/16 03:25:16;;;;;;;20.57;7.92;;;;;;;1.06;89.14;101978.50;1777234;80;21532;-89
2020/12/16 03:27:42;;;;;;;22.73;8.23;;;;;;;0.96;89.31;101981.81;1777245;80;21074;-89
2020/12/16 03:30:08;;;;;;;25.57;8.70;;;;;;;1.21;89.04;101972.09;1777172;80;21186;-90
2020/12/16 03:32:34;;;;;;;17.95;7.35;;;;;;;1.30;88.99;101978.56;1777160;80;20945;-89
2020/12/16 03:35:00;;;;;;;22.93;7.97;;;;;;;1.20;88.93;101979.20;1776999;78;21204;-90
2020/12/16 03:37:26;;;;;;;22.07;7.75;;;;;;;0.94;89.21;101981.13;1773722;79;21040;-90
2020/12/16 03:39:52;;;;;;;22.65;8.80;;;;;;;0.83;89.61;101976.47;1773857;79;21024;-89
2020/12/16 03:42:18;;;;;;;21.75;7.50;;;;;;;0.94;89.64;101985.11;1773844;80;21245;-89
2020/12/16 03:44:43;;;;;;;18.05;7.55;;;;;;;1.05;88.76;101986.97;1773722;80;21682;-89
2020/12/16 03:47:09;;;;;;;18.25;6.92;;;;;;;0.99;88.61;101982.81;1773904;80;21012;-89
2020/12/16 03:49:35;;;;;;;15.98;6.37;;;;;;;0.80;88.79;101976.80;1773895;80;20996;-89
2020/12/16 03:52:01;;;;;;;21.85;7.87;;;;;;;0.64;89.56;101988.66;1773921;80;20998;-89
2020/12/16 03:54:27;;;;;;;17.80;6.90;;;;;;;0.65;90.14;101987.19;1773808;80;21967;-88
2020/12/16 03:56:53;;;;;;;15.60;6.65;;;;;;;0.66;90.36;101989.34;1773808;80;20906;-88
2020/12/16 03:59:19;;;;;;;21.50;7.60;;;;;;;0.60;90.11;101997.95;1773808;80;21652;-89
2020/12/16 04:01:45;;;;;;;17.70;7.87;;;;;;;0.70;89.88;101995.16;1773855;80;20988;-89
2020/12/16 04:04:11;;;;;;;19.70;7.22;;;;;;;0.76;89.82;101997.17;1773877;80;21168;-89
2020/12/16 04:06:37;;;;;;;16.23;6.90;;;;;;;0.86;89.87;101998.70;1773854;80;21171;-89
2020/12/16 04:09:05;;;;;;;14.55;5.97;;;;;;;0.80;89.42;102002.50;1773758;80;21632;-89
2020/12/16 04:11:31;;;;;;;15.80;6.67;;;;;;;0.61;89.41;102001.75;1773895;80;21536;-89
2020/12/16 04:13:57;;;;;;;17.52;6.70;;;;;;;0.78;89.64;102000.00;1773671;80;20925;-89
2020/12/16 04:16:24;;;;;;;18.05;7.15;;;;;;;0.86;89.28;102001.86;1773795;80;21182;-89
2020/12/16 04:18:51;;;;;;;16.23;6.80;;;;;;;0.76;89.56;102004.62;1773835;80;21209;-89
2020/12/16 04:21:20;;;;;;;15.78;7.30;;;;;;;0.71;89.27;102005.63;1773843;80;21178;-89
2020/12/16 04:23:46;;;;;;;16.62;6.45;;;;;;;0.79;89.58;102000.83;1773927;80;21135;-89
2020/12/16 04:26:12;;;;;;;16.05;6.53;;;;;;;0.86;89.11;102002.69;1773886;80;21111;-89
2020/12/16 04:28:38;;;;;;;15.50;6.45;;;;;;;0.76;89.60;102009.11;1773757;79;21048;-89
2020/12/16 04:31:06;;;;;;;19.32;6.70;;;;;;;0.79;89.34;102005.63;1773910;80;21095;-89
2020/12/16 04:33:32;;;;;;;13.75;5.70;;;;;;;0.72;88.99;102004.62;1773845;79;21135;-88
2020/12/16 04:35:58;;;;;;;14.47;5.97;;;;;;;0.54;89.64;102010.52;1773787;79;22404;-89
2020/12/16 04:38:24;;;;;;;15.05;5.92;;;;;;;0.59;89.79;102005.55;1773843;80;21091;-89
2020/12/16 04:40:51;;;;;;;15.28;5.80;;;;;;;0.55;89.90;102005.54;1773865;80;20960;-89
2020/12/16 04:43:21;;;;;;;15.43;6.00;;;;;;;0.61;89.70;102007.05;1773781;80;21154;-88
2020/12/16 04:45:48;;;;;;;12.45;5.37;;;;;;;0.47;90.51;102008.14;1773548;80;21115;-89
2020/12/16 04:48:15;;;;;;;13.90;5.97;;;;;;;0.44;91.09;102008.81;1773650;79;21196;-89
2020/12/16 04:50:43;;;;;;;13.75;6.00;;;;;;;0.36;91.60;102017.22;1773731;79;21099;-89
2020/12/16 04:53:15;;;;;;;13.95;5.58;;;;;;;0.55;91.00;102030.73;1773913;79;21147;-88
2020/12/16 04:55:41;;;;;;;10.98;5.53;;;;;;;0.48;91.19;102029.22;1692836;83;21644;-89
2020/12/16 04:58:09;;;;;;;16.50;7.03;;;;;;;0.50;90.96;102025.92;1692949;84;21699;-89
2020/12/16 05:00:36;;;;;;;16.62;6.30;;;;;;;0.53;91.35;102028.73;1692955;83;21214;-90
2020/12/16 05:03:09;;;;;;;16.62;7.08;;;;;;;0.83;90.23;102029.55;1692964;84;21179;-88
2020/12/16 05:05:36;;;;;;;16.20;6.83;;;;;;;0.57;90.64;102041.52;1690309;84;21529;-89
2020/12/16 05:08:16;;;;;;;19.90;7.03;;;;;;;0.83;90.34;102043.31;1692993;84;21173;-89
2020/12/16 05:10:45;;;;;;;13.60;5.75;;;;;;;0.69;90.81;102044.73;1692937;84;21143;-90
2020/12/16 05:13:18;;;;;;;17.65;6.58;;;;;;;0.94;90.02;102049.63;1641859;86;21165;-90
2020/12/16 05:15:47;;;;;;;14.98;6.42;;;;;;;0.95;89.57;102047.84;1664717;86;21109;-89
2020/12/16 05:18:19;;;;;;;19.30;6.60;;;;;;;0.76;89.86;102048.41;1664744;86;20950;-89
2020/12/16 05:20:53;;;;;;;15.13;5.85;;;;;;;0.74;90.35;102053.56;1664657;86;21149;-90
2020/12/16 05:23:26;;;;;;;15.40;5.55;;;;;;;0.68;90.20;102060.33;1664829;86;21296;-90
2020/12/16 05:26:10;;;;;;;12.55;4.03;;;;;;;0.81;89.57;102063.86;1606691;88;26634;-88
2020/12/16 05:28:40;;;;;;;10.00;4.08;;;;;;;0.58;87.62;102066.22;1604042;89;21182;-89
2020/12/16 05:31:10;;;;;;;6.12;3.22;;;;;;;0.41;88.45;102065.29;1579436;90;21190;-89
2020/12/16 05:33:47;;;;;;;8.05;4.08;;;;;;;0.36;88.82;102067.10;1579598;90;21624;-89
2020/12/16 05:36:28;;;;;;;7.60;3.60;;;;;;;0.43;89.09;102065.97;1579413;89;21209;-89
2020/12/16 05:38:57;;;;;;;11.68;4.25;;;;;;;0.47;88.64;102064.66;1578540;89;21226;-89
2020/12/16 05:41:32;;;;;;;7.53;3.67;;;;;;;0.60;88.96;102068.23;1579561;89;21126;-89
2020/12/16 05:44:22;;;;;;;9.18;3.77;;;;;;;0.61;88.43;102069.89;1579553;89;21642;-88
2020/12/16 05:46:52;;;;;;;11.70;4.15;;;;;;;0.70;88.26;102069.44;1579446;89;21244;-89
2020/12/16 05:49:29;;;;;;;8.30;3.33;;;;;;;0.64;88.24;102071.72;1579395;89;21274;-90
2020/12/16 05:52:05;;;;;;;8.10;3.62;;;;;;;0.82;87.52;102065.51;1579677;90;21627;-90
2020/12/16 05:54:34;;;;;;;8.45;3.50;;;;;;;0.48;88.00;102074.30;1554980;92;21392;-89
2020/12/16 05:57:29;;;;;;;9.15;3.83;;;;;;;0.37;88.55;102078.03;1555337;92;21649;-89
2020/12/16 06:00:10;;;;;;;7.90;3.62;;;;;;;0.50;88.86;102084.73;1554988;92;21296;-89
2020/12/16 06:02:42;;;;;;;8.13;3.80;;;;;;;0.24;88.79;102084.25;1555044;92;21235;-90
2020/12/16 06:05:14;;;;;;;8.63;4.03;;;;;;;0.26;89.29;102087.56;1535316;92;21195;-88
2020/12/16 06:07:46;;;;;;;6.42;3.30;;;;;;;0.36;88.74;102095.44;1555071;92;21179;-89
2020/12/16 06:10:13;;;;;;;7.43;3.40;;;;;;;0.36;89.30;102100.24;1555499;92;21184;-89
2020/12/16 06:12:42;;;;;;;8.23;3.55;;;;;;;0.47;88.42;102091.68;1555092;92;21315;-88
2020/12/16 06:15:14;;;;;;;8.48;3.52;;;;;;;0.24;89.10;102097.52;1557700;88;21272;-89
2020/12/16 06:17:48;;;;;;;10.30;4.30;;;;;;;0.39;89.56;102089.33;1680159;85;21099;-88
2020/12/16 06:20:17;;;;;;;14.85;5.00;;;;;;;0.43;89.28;102088.02;1683583;85;21536;-89
2020/12/16 06:22:46;;;;;;;11.15;4.62;;;;;;;0.55;89.07;102084.61;1704561;83;21211;-88
2020/12/16 06:25:16;;;;;;;11.08;3.83;;;;;;;0.67;89.15;102084.67;1704402;84;21144;-89
2020/12/16 06:27:47;;;;;;;11.65;4.85;;;;;;;0.50;88.71;102082.08;1704570;84;21621;-89
2020/12/16 06:30:30;;;;;;;8.55;4.08;;;;;;;0.65;88.39;102095.13;1653269;86;21210;-88
2020/12/16 06:33:07;;;;;;;11.12;4.62;;;;;;;0.64;88.10;102094.77;1630076;87;21233;-88
2020/12/16 06:35:34;;;;;;;11.90;4.85;;;;;;;0.59;88.13;102102.36;1628814;87;22386;-88
2020/12/16 06:38:23;;;;;;;9.93;4.22;;;;;;;0.72;88.46;102101.95;1629346;87;21272;-89
2020/12/16 06:40:52;;;;;;;14.95;6.87;;;;;;;0.65;88.02;102106.56;1606926;88;21161;-89
2020/12/16 06:43:35;;;;;;;17.12;6.28;;;;;;;0.60;88.76;102104.87;1628982;88;21208;-89
2020/12/16 06:46:39;;;;;;;11.40;4.95;;;;;;;0.56;88.57;102099.55;1628964;88;21193;-89
2020/12/16 06:49:05;;;;;;;11.88;5.20;;;;;;;0.76;88.63;102104.62;1624445;88;21701;-89
2020/12/16 06:51:45;;;;;;;12.20;4.62;;;;;;;1.04;88.09;102099.95;1664678;84;22021;-89
2020/12/16 06:54:14;;;;;;;10.20;4.25;;;;;;;1.08;87.71;102099.96;1683571;84;21216;-88
2020/12/16 06:56:44;;;;;;;13.20;5.12;;;;;;;1.11;87.75;102096.98;1587894;89;21243;-89
2020/12/16 06:59:14;;;;;;;10.03;4.03;;;;;;;1.07;87.90;102097.81;1587891;89;21594;-89
2020/12/16 07:01:41;;;;;;;12.13;4.70;;;;;;;1.07;87.61;102102.30;1588111;89;21195;-89
2020/12/16 07:04:13;;;;;;;12.70;5.08;;;;;;;1.34;87.23;102098.56;1587912;89;22005;-88
2020/12/16 07:06:41;;;;;;;10.68;4.80;;;;;;;1.30;87.24;102097.23;1587768;89;21192;-89
2020/12/16 07:09:17;;;;;;;11.80;4.87;;;;;;;0.87;87.45;102100.37;1587766;89;21165;-89
2020/12/16 07:11:54;;;;;;;16.70;5.92;;;;;;;0.77;88.32;102106.30;1563223;90;22464;-89
2020/12/16 07:14:27;;;;;;;14.25;5.72;;;;;;;0.83;87.92;102100.36;1563196;90;21192;-88
2020/12/16 07:17:09;;;;;;;18.12;6.75;;;;;;;0.93;88.17;102103.72;1560029;90;21274;-89
2020/12/16 07:19:35;;;;;;;22.93;7.58;;;;;;;0.70;88.59;102110.55;1562986;90;21398;-89
2020/12/16 07:22:22;;;;;;;16.85;6.42;;;;;;;0.95;88.48;102106.22;1563256;90;21196;-89
2020/12/16 07:24:53;;;;;;;14.28;5.33;;;;;;;0.94;87.95;102105.87;1563193;90;21251;-88
2020/12/16 07:27:21;;;;;;;14.63;5.30;;;;;;;0.96;87.08;102111.36;1563246;90;21704;-88
2020/12/16 07:29:58;;;;;;;12.18;4.95;;;;;;;0.75;88.00;102110.42;1578348;89;21213;-89
2020/12/16 07:32:26;;;;;;;11.18;4.53;;;;;;;0.89;88.37;102116.47;1543162;92;21533;-88
2020/12/16 07:34:59;;;;;;;13.35;5.12;;;;;;;0.62;87.90;102123.30;1543221;92;21509;-89
2020/12/16 07:37:28;;;;;;;13.25;5.03;;;;;;;0.61;88.66;102122.44;1519857;93;21250;-88
2020/12/16 07:39:57;;;;;;;10.53;4.42;;;;;;;0.52;88.81;102114.09;1508916;95;21840;-88
2020/12/16 07:42:27;;;;;;;11.97;4.40;;;;;;;0.44;88.89;102121.98;1508973;95;21293;-89
2020/12/16 07:44:55;;;;;;;11.88;4.65;;;;;;;0.57;89.36;102121.59;1508869;95;21182;-89
2020/12/16 07:51:07;;;;;;;10.93;4.60;;;;;;;0.53;89.58;102126.39;1548543;92;21283;-89
2020/12/16 07:53:35;;;;;;;13.58;4.60;;;;;;;0.63;90.01;102121.80;1545889;90;21624;-89
2020/12/16 07:56:03;;;;;;;13.22;5.20;;;;;;;0.75;89.47;102125.02;1568770;91;21212;-88
2020/12/16 07:58:31;;;;;;;12.45;4.97;;;;;;;0.81;89.48;102125.71;1568745;91;21227;-89
2020/12/16 08:01:13;;;;;;;12.47;4.58;;;;;;;0.75;89.82;102122.36;1568745;91;21127;-88
2020/12/16 08:03:41;;;;;;;12.50;5.20;;;;;;;0.97;89.39;102120.15;1568840;91;21183;-90
2020/12/16 08:10:03;;;;;;;11.15;4.17;;;;;;;0.82;89.44;102129.20;1568729;91;21242;-90
2020/12/16 08:16:10;;;;;;;13.22;5.10;;;;;;;0.59;90.36;102131.53;1568777;91;21215;-90
2020/12/16 08:18:38;;;;;;;15.43;5.70;;;;;;;0.59;90.81;102126.23;1568784;91;21175;-89
2020/12/16 08:21:20;;;;;;;16.17;5.92;;;;;;;0.71;90.94;102119.70;1568822;91;21679;-88
2020/12/16 08:23:48;;;;;;;16.62;5.40;;;;;;;0.63;91.49;102127.10;1540709;93;22036;-87
2020/12/16 08:26:18;;;;;;;13.00;4.75;;;;;;;0.53;91.08;102126.86;1540537;93;21559;-88
2020/12/16 08:28:45;;;;;;;12.70;5.42;;;;;;;0.60;91.54;102126.09;1559515;89;21210;-88
2020/12/16 08:31:12;;;;;;;16.93;5.72;;;;;;;0.58;91.81;102129.88;1649281;84;21207;-88
2020/12/16 08:33:39;;;;;;;20.62;6.50;;;;;;;0.63;92.24;102131.58;1699656;82;21152;-88
2020/12/16 08:36:09;;;;;;;16.95;6.72;;;;;;;0.54;92.26;102143.13;1740436;82;21224;-87
2020/12/16 08:38:43;;;;;;;16.57;6.22;;;;;;;0.58;92.19;102133.86;1744787;81;21152;-88
2020/12/16 08:41:10;;;;;;;;;;;;;;;0.67;91.98;102141.70;1718251;82;21151;-86
2020/12/16 08:43:39;;;;;;;19.65;6.83;;;;;;;0.67;90.67;102134.25;1715812;83;20701;-87
2020/12/16 08:46:17;;;;;;;16.23;6.40;;;;;;;0.97;90.67;102141.38;1715847;82;21182;-88
2020/12/16 08:49:03;;;;;;;22.02;7.40;;;;;;;0.96;90.12;102140.55;1715551;82;21576;-86
2020/12/16 08:51:39;;;;;;;15.13;6.33;;;;;;;1.04;89.71;102137.95;1715707;82;21260;-86
2020/12/16 08:54:11;;;;;;;18.67;6.47;;;;;;;1.09;88.51;102133.00;1715705;82;21259;-85
2020/12/16 08:56:42;;;;;;;16.48;6.28;;;;;;;1.08;87.59;102125.18;1715853;82;21091;-85
2020/12/16 08:59:24;;;;;;;16.02;5.90;;;;;;;1.17;87.00;102129.53;1715677;82;21532;-86
2020/12/16 09:01:58;;;;;;;14.93;5.60;;;;;;;1.01;86.28;102122.84;1715573;83;21233;-85
2020/12/16 09:04:28;;;;;;;13.35;5.47;;;;;;;0.84;86.54;102134.69;1686111;83;21602;-85
2020/12/16 09:07:02;;;;;;;14.05;6.03;;;;;;;0.77;87.32;102132.34;1686326;83;21157;-86
2020/12/16 09:09:29;;;;;;;19.02;6.95;;;;;;;0.80;87.33;102134.67;1674897;85;21246;-85
2020/12/16 09:11:56;;;;;;;16.02;5.60;;;;;;;0.76;87.25;102134.63;1675202;85;21305;-86
2020/12/16 09:14:23;;;;;;;14.28;5.70;;;;;;;0.65;87.61;102134.92;1675668;85;21210;-86
2020/12/16 09:16:50;;;;;;;15.75;5.97;;;;;;;0.66;88.10;102131.27;1675402;85;21379;-86
2020/12/16 09:19:26;;;;;;;13.68;5.62;;;;;;;0.69;88.13;102128.30;1675655;85;21083;-86
2020/12/16 09:21:53;;;;;;;16.93;6.20;;;;;;;0.54;88.50;102138.66;1675578;85;21162;-86
2020/12/16 09:24:22;;;;;;;15.08;6.12;;;;;;;0.60;88.58;102136.70;1675430;85;21159;-86
2020/12/16 09:26:50;;;;;;;15.43;6.33;;;;;;;0.69;88.32;102138.91;1675702;85;21226;-86
2020/12/16 09:29:28;;;;;;;40.28;12.00;;;;;;;0.67;88.29;102139.55;1675441;85;21524;-86
2020/12/16 09:32:15;;;;;;;22.30;8.48;;;;;;;0.63;88.09;102131.08;1675544;85;21166;-86
2020/12/16 09:34:47;;;;;;;20.17;7.03;;;;;;;0.61;88.52;102142.83;1675655;85;21267;-87
2020/12/16 09:37:18;;;;;;;22.95;8.80;;;;;;;0.56;88.83;102137.16;1678752;85;21219;-88
2020/12/16 09:39:47;;;;;;;39.50;11.93;;;;;;;0.44;88.73;102149.37;1606561;89;21314;-88
2020/12/16 09:42:18;;;;;;;42.65;14.13;;;;;;;0.48;89.14;102144.58;1606658;89;21631;-88
2020/12/16 09:44:47;;;;;;;26.23;9.30;;;;;;;0.54;88.89;102145.78;1606643;89;21162;-87
2020/12/16 09:47:22;;;;;;;21.45;8.08;;;;;;;0.62;88.64;102145.34;1606655;89;21265;-87
2020/12/16 09:50:01;;;;;;;23.98;8.68;;;;;;;0.55;88.97;102149.59;1606641;89;21623;-87
2020/12/16 09:52:35;;;;;;;22.75;8.53;;;;;;;0.61;88.77;102148.14;1606720;89;21214;-88
2020/12/16 09:55:18;;;;;;;18.27;7.40;;;;;;;0.52;88.39;102145.09;1606576;89;21008;-88
2020/12/16 09:57:45;;;;;;;30.48;9.40;;;;;;;0.52;88.67;102145.09;1606689;88;21095;-88
2020/12/16 10:00:12;;;;;;;28.12;9.10;;;;;;;0.41;89.17;102147.02;1607406;88;21650;-87
2020/12/16 10:02:38;;;;;;;26.02;9.38;;;;;;;0.48;89.96;102139.77;1620593;88;21156;-87
2020/12/16 10:05:05;;;;;;;18.60;7.42;;;;;;;0.57;89.33;102134.86;1614580;88;21221;-87
2020/12/16 10:07:33;;;;;;;23.45;8.20;;;;;;;0.52;88.56;102137.97;1606278;88;21676;-87
2020/12/16 10:10:00;;;;;;;24.98;7.72;;;;;;;0.62;88.56;102137.39;1609767;89;21227;-88
2020/12/16 10:12:26;;;;;;;23.52;8.08;;;;;;;0.52;89.24;102139.29;1609546;89;21170;-87
2020/12/16 10:14:52;;;;;;;23.67;8.65;;;;;;;0.52;89.59;102133.16;1609588;89;21364;-87
2020/12/16 10:17:24;;;;;;;20.88;7.80;;;;;;;0.51;89.60;102132.83;1609797;89;21214;-87
2020/12/16 10:19:52;;;;;;;22.87;8.23;;;;;;;0.60;89.39;102131.39;1605346;89;21198;-87
2020/12/16 10:22:18;;;;;;;23.75;8.08;;;;;;;0.45;89.21;102140.41;1609814;89;21190;-88
2020/12/16 10:24:46;;;;;;;22.85;7.12;;;;;;;0.59;88.54;102139.49;1609710;89;20973;-88
2020/12/16 10:27:12;;;;;;;24.37;8.00;;;;;;;0.42;88.89;102138.07;1606273;89;21198;-88
2020/12/16 10:29:38;;;;;;;20.15;7.20;;;;;;;0.34;89.08;102138.00;1609531;88;21229;-90
2020/12/16 10:32:04;;;;;;;20.60;7.37;;;;;;;0.55;88.42;102132.84;1609689;89;21495;-89
2020/12/16 10:34:31;;;;;;;22.00;7.60;;;;;;;0.59;88.05;102135.05;1609764;89;21575;-88
2020/12/16 10:36:57;;;;;;;21.12;7.95;;;;;;;0.43;88.34;102139.72;1673104;79;21205;-89
2020/12/16 10:39:23;;;;;;;20.37;6.97;;;;;;;0.65;88.13;102141.05;1798069;79;21638;-90
2020/12/16 10:41:52;;;;;;;20.88;7.30;;;;;;;0.86;86.89;102139.84;1798034;79;21208;-89
2020/12/16 10:44:20;;;;;;;22.42;7.95;;;;;;;0.71;86.79;102143.58;1729094;83;21194;-89
2020/12/16 10:46:54;;;;;;;25.62;8.50;;;;;;;0.53;86.81;102145.42;1729218;83;21230;-90
2020/12/16 10:49:18;;;;;;;22.13;7.05;;;;;;;0.45;87.62;102142.23;1725476;82;21162;-90
2020/12/16 10:51:44;;;;;;;24.00;8.20;;;;;;;0.35;88.73;102148.94;1729070;83;20936;-89
2020/12/16 10:54:10;;;;;;;29.52;8.80;;;;;;;0.40;89.07;102149.31;1729100;83;22004;-88
2020/12/16 10:56:36;;;;;;;28.67;9.70;;;;;;;0.41;88.79;102145.70;1729140;83;21095;-87
2020/12/16 10:59:02;;;;;;;29.02;9.60;;;;;;;0.60;88.38;102140.68;1729377;83;20968;-89
2020/12/16 11:01:28;;;;;;;24.72;9.15;;;;;;;0.64;87.97;102134.56;1729278;83;21265;-90
2020/12/16 11:03:54;;;;;;;22.27;8.18;;;;;;;0.93;87.98;102140.05;1729311;83;21091;-90
2020/12/16 11:06:20;;;;;;;25.97;8.58;;;;;;;1.19;87.57;102128.88;1729264;83;21651;-90
2020/12/16 11:08:46;;;;;;;21.02;7.75;;;;;;;1.18;86.64;102123.25;1703406;83;21237;-91
2020/12/16 11:11:12;;;;;;;29.67;10.00;;;;;;;1.35;86.51;102123.64;1729311;83;20909;-90
2020/12/16 11:13:38;;;;;;;22.52;9.13;;;;;;;1.42;85.54;102123.83;1729296;83;21008;-91
2020/12/16 11:16:04;;;;;;;27.48;8.70;;;;;;;1.35;85.01;102127.63;1729255;83;20967;-90
2020/12/16 11:18:30;;;;;;;25.17;8.83;;;;;;;1.47;84.77;102122.85;1729481;83;21300;-90
2020/12/16 11:20:56;;;;;;;27.40;10.28;;;;;;;1.68;85.28;102129.04;1729295;83;20924;-90
2020/12/16 11:23:21;;;;;;;34.95;9.53;;;;;;;1.77;83.90;102128.06;1729313;83;21683;-88
2020/12/16 11:25:47;;;;;;;19.87;7.85;;;;;;;1.93;84.32;102128.56;1729240;83;21020;-88
2020/12/16 11:28:13;;;;;;;23.42;8.20;;;;;;;2.07;84.52;102131.08;1729342;83;20966;-88
2020/12/16 11:30:39;;;;;;;24.37;9.03;;;;;;;2.07;82.27;102138.23;1729089;83;21250;-88
2020/12/16 11:33:05;;;;;;;22.98;8.80;;;;;;;2.10;82.89;102134.73;1729171;83;21594;-88
2020/12/16 11:35:31;;;;;;;27.80;9.98;;;;;;;2.20;83.15;102130.06;1729145;83;20936;-88
2020/12/16 11:39:05;;;;;;;27.42;9.68;;;;;;;2.29;83.16;102138.87;1729381;82;20972;-88
2020/12/16 11:41:31;;;;;;;25.12;8.78;;;;;;;2.33;82.89;102132.25;1781119;79;21138;-88
2020/12/16 11:43:57;;;;;;;28.52;9.63;;;;;;;2.25;81.40;102133.57;1808752;79;21201;-87
2020/12/16 11:46:25;;;;;;;26.55;9.75;;;;;;;2.17;80.65;102127.74;1808966;79;21098;-88
2020/12/16 11:48:50;;;;;;;27.10;9.18;;;;;;;2.41;82.33;102134.05;1808980;79;21228;-88